Time;durP1;ratioP1;P1;durP2;ratioP2;P2;SDS_P1;SDS_P2;PMS_P1;PMS_P2;Temp;Humidity;BMP_temperature;BMP_pressure;BME280_temperature;BME280_humidity;BME280_pressure;Samples;Min_cycle;Max_cycle;Signal;HPM_P1;HPM_P2
2021/08/07 00:02:03;;;;;;;3.47;2.60;;;;;;;14.80;100.00;99818.19;5073112;28;20296;-74
2021/08/07 00:04:30;;;;;;;3.10;2.80;;;;;;;14.81;100.00;99816.41;5078934;28;20228;-73
2021/08/07 00:06:56;;;;;;;2.90;2.60;;;;;;;14.77;100.00;99816.63;5074359;28;20582;-73
2021/08/07 00:09:23;;;;;;;2.90;2.60;;;;;;;14.73;100.00;99825.56;5078484;28;20223;-73
2021/08/07 00:11:50;;;;;;;3.23;2.93;;;;;;;14.74;100.00;99816.78;5071843;28;20209;-73
2021/08/07 00:14:17;;;;;;;2.87;2.50;;;;;;;14.75;100.00;99825.47;5074565;28;20236;-73
2021/08/07 00:16:43;;;;;;;2.70;2.50;;;;;;;14.70;100.00;99817.03;5075431;28;20304;-74
2021/08/07 00:19:10;;;;;;;2.90;2.60;;;;;;;14.71;100.00;99831.84;5080461;28;20729;-73
2021/08/07 00:21:36;;;;;;;3.00;2.70;;;;;;;14.70;100.00;99819.66;5078728;28;20208;-73
2021/08/07 00:24:02;;;;;;;2.73;2.53;;;;;;;14.72;100.00;99823.03;5075631;28;20226;-73
2021/08/07 00:26:29;;;;;;;3.63;2.80;;;;;;;14.70;100.00;99817.84;5078263;28;20236;-74
2021/08/07 00:28:57;;;;;;;2.93;2.60;;;;;;;14.68;100.00;99821.50;5072171;28;20214;-73
2021/08/07 00:31:24;;;;;;;3.97;2.60;;;;;;;14.69;100.00;99818.81;5078688;28;20300;-74
2021/08/07 00:33:50;;;;;;;3.03;2.73;;;;;;;14.71;100.00;99823.97;5074221;28;20636;-74
2021/08/07 00:36:17;;;;;;;5.27;3.37;;;;;;;14.68;100.00;99819.72;5074004;28;20206;-74
2021/08/07 00:38:43;;;;;;;5.67;4.87;;;;;;;14.68;100.00;99805.78;5077494;28;20209;-73
2021/08/07 00:41:10;;;;;;;5.83;4.37;;;;;;;14.66;100.00;99818.97;5076540;28;20218;-73
2021/08/07 00:43:36;;;;;;;5.23;4.40;;;;;;;14.62;100.00;99806.13;5075291;28;20608;-73
2021/08/07 00:46:11;;;;;;;4.83;4.30;;;;;;;14.60;100.00;99807.97;5076916;28;20190;-74
2021/08/07 00:48:38;;;;;;;4.53;4.13;;;;;;;14.58;100.00;99793.19;5069516;28;20272;-73
2021/08/07 00:51:06;;;;;;;4.10;3.67;;;;;;;14.58;100.00;99798.44;5079222;28;20206;-73
2021/08/07 00:53:35;;;;;;;4.30;3.60;;;;;;;14.55;100.00;99802.97;5071804;28;20314;-73
2021/08/07 00:56:07;;;;;;;4.07;3.50;;;;;;;14.55;100.00;99803.81;5080526;28;20205;-73
2021/08/07 00:58:43;;;;;;;3.23;2.93;;;;;;;14.52;100.00;99803.97;5069789;28;20228;-73
2021/08/07 01:01:14;;;;;;;3.60;3.20;;;;;;;14.46;100.00;99806.94;5076980;28;20285;-73
2021/08/07 01:03:45;;;;;;;3.60;3.10;;;;;;;14.42;100.00;99812.44;5073722;28;20213;-74
2021/08/07 01:06:24;;;;;;;3.67;3.20;;;;;;;14.38;100.00;99814.38;5075778;28;20292;-73
2021/08/07 01:09:01;;;;;;;3.67;3.13;;;;;;;14.33;100.00;99817.25;5076619;28;20225;-73
2021/08/07 01:11:36;;;;;;;3.20;2.90;;;;;;;14.28;100.00;99821.91;5076506;28;20206;-73
2021/08/07 01:14:07;;;;;;;3.67;3.13;;;;;;;14.29;100.00;99815.72;5082024;28;20240;-73
2021/08/07 01:16:39;;;;;;;4.30;2.80;;;;;;;14.22;100.00;99814.38;5074965;28;20684;-73
2021/08/07 01:19:14;;;;;;;3.30;3.00;;;;;;;14.20;100.00;99813.59;5082269;28;20220;-73
2021/08/07 01:21:46;;;;;;;3.30;2.90;;;;;;;14.16;100.00;99823.41;5076058;28;20295;-73
2021/08/07 01:24:17;;;;;;;3.47;3.10;;;;;;;14.12;100.00;99828.88;5081865;28;20229;-74
2021/08/07 01:27:00;;;;;;;3.23;2.93;;;;;;;14.08;100.00;99828.22;5084022;28;20206;-73
2021/08/07 01:29:29;;;;;;;2.97;2.67;;;;;;;14.08;100.00;99828.22;5074936;28;20230;-73
2021/08/07 01:32:00;;;;;;;3.70;3.20;;;;;;;14.02;100.00;99829.38;5078400;28;20206;-73
2021/08/07 01:34:47;;;;;;;3.30;3.00;;;;;;;13.99;100.00;99837.41;5077319;28;20244;-73
2021/08/07 01:37:20;;;;;;;3.47;2.80;;;;;;;13.97;100.00;99835.81;5081952;28;20218;-73
2021/08/07 01:40:22;;;;;;;3.73;2.90;;;;;;;13.97;100.00;99836.66;5074721;28;20214;-73
2021/08/07 01:42:58;;;;;;;4.23;2.70;;;;;;;13.94;100.00;99833.34;5079191;28;20221;-73
2021/08/07 01:45:30;;;;;;;3.67;2.70;;;;;;;13.90;100.00;99831.81;5074530;28;21264;-73
2021/08/07 01:48:04;;;;;;;3.60;3.30;;;;;;;13.89;100.00;99836.19;5079773;28;20207;-73
2021/08/07 01:50:45;;;;;;;3.40;3.10;;;;;;;13.93;100.00;99834.25;5079660;28;20253;-73
2021/08/07 01:53:17;;;;;;;4.83;3.03;;;;;;;13.95;100.00;99833.25;5084023;28;20235;-73
2021/08/07 01:55:49;;;;;;;3.20;2.90;;;;;;;13.91;100.00;99838.75;5082912;28;20200;-73
2021/08/07 01:58:23;;;;;;;3.37;2.90;;;;;;;13.90;100.00;99829.19;5084557;28;20241;-73
2021/08/07 02:00:53;;;;;;;3.87;3.17;;;;;;;13.91;100.00;99823.00;5080015;28;20194;-73
2021/08/07 02:03:32;;;;;;;3.10;2.80;;;;;;;13.89;100.00;99824.88;5076886;28;20234;-73
2021/08/07 02:05:59;;;;;;;3.60;3.30;;;;;;;13.89;100.00;99823.09;5084844;28;20236;-73
2021/08/07 02:08:26;;;;;;;4.60;2.97;;;;;;;13.95;100.00;99824.56;5079398;28;20209;-73
2021/08/07 02:10:58;;;;;;;3.53;3.23;;;;;;;13.91;100.00;99826.50;5079208;28;20216;-72
2021/08/07 02:13:27;;;;;;;4.80;4.07;;;;;;;13.90;100.00;99816.94;5075426;28;20215;-73
2021/08/07 02:16:02;;;;;;;4.53;3.73;;;;;;;13.90;100.00;99814.31;5085126;28;20291;-73
2021/08/07 02:18:32;;;;;;;4.00;3.60;;;;;;;13.83;100.00;99812.94;5075576;28;20212;-73
2021/08/07 02:21:01;;;;;;;3.93;3.53;;;;;;;13.83;100.00;99811.16;5083626;28;20218;-73
2021/08/07 02:23:35;;;;;;;4.43;3.60;;;;;;;13.86;100.00;99801.44;5071815;28;20230;-73
2021/08/07 02:26:06;;;;;;;4.10;3.70;;;;;;;13.85;100.00;99802.41;5077812;28;20363;-73
2021/08/07 02:28:41;;;;;;;4.57;4.07;;;;;;;13.85;100.00;99800.59;5075026;28;20765;-74
2021/08/07 02:31:14;;;;;;;4.07;3.33;;;;;;;13.80;100.00;99816.56;5075053;28;20414;-73
2021/08/07 02:33:45;;;;;;;5.00;4.10;;;;;;;13.80;100.00;99810.47;5079416;28;20222;-73
2021/08/07 02:36:15;;;;;;;4.40;3.77;;;;;;;13.78;100.00;99807.94;5075799;28;20759;-73
2021/08/07 02:38:45;;;;;;;7.17;4.27;;;;;;;13.74;100.00;99813.44;5082538;28;20222;-73
2021/08/07 02:41:12;;;;;;;5.43;4.03;;;;;;;13.74;100.00;99810.81;5080132;28;20214;-73
2021/08/07 02:43:45;;;;;;;4.77;4.10;;;;;;;13.63;100.00;99813.97;5076510;28;20634;-73
2021/08/07 02:46:15;;;;;;;4.77;4.03;;;;;;;13.62;100.00;99813.13;5075446;28;20210;-73
2021/08/07 02:48:43;;;;;;;4.30;3.90;;;;;;;13.59;100.00;99812.44;5074660;28;20207;-73
2021/08/07 02:51:10;;;;;;;4.17;3.77;;;;;;;13.58;100.00;99819.47;5074849;28;20846;-73
2021/08/07 02:53:45;;;;;;;4.03;3.20;;;;;;;13.66;100.00;99808.56;5085258;28;20225;-73
2021/08/07 02:56:12;;;;;;;5.33;3.50;;;;;;;13.60;100.00;99822.84;5074522;28;20210;-73
2021/08/07 02:58:41;;;;;;;5.33;3.50;;;;;;;13.59;100.00;99820.31;5083166;28;20208;-74
2021/08/07 03:01:08;;;;;;;4.87;3.03;;;;;;;13.58;100.00;99821.25;5073892;28;20670;-73
2021/08/07 03:03:36;;;;;;;5.67;3.93;;;;;;;13.58;100.00;99811.59;5080464;28;20713;-73
2021/08/07 03:06:04;;;;;;;3.77;3.43;;;;;;;13.58;100.00;99818.63;5078248;28;20219;-73
2021/08/07 03:08:33;;;;;;;4.07;3.67;;;;;;;13.50;100.00;99810.31;5076575;28;20203;-73
2021/08/07 03:11:00;;;;;;;4.70;3.60;;;;;;;13.58;100.00;99816.00;5084464;28;20381;-73
2021/08/07 03:13:28;;;;;;;4.60;3.83;;;;;;;13.63;100.00;99827.94;5078122;28;20208;-74
2021/08/07 03:15:55;;;;;;;4.20;3.20;;;;;;;13.61;100.00;99826.31;5068577;28;20763;-73
2021/08/07 03:18:28;;;;;;;4.00;3.60;;;;;;;13.62;100.00;99828.84;5075613;28;20213;-73
2021/08/07 03:20:57;;;;;;;3.63;3.33;;;;;;;13.58;100.00;99824.69;5075186;28;20260;-73
2021/08/07 03:23:29;;;;;;;3.73;3.33;;;;;;;13.62;100.00;99825.38;5074409;28;20225;-74
2021/08/07 03:26:01;;;;;;;4.23;3.57;;;;;;;13.66;100.00;99820.84;5079560;28;20689;-73
2021/08/07 03:28:27;;;;;;;4.93;4.03;;;;;;;13.67;100.00;99822.50;5077755;28;20276;-73
2021/08/07 03:30:54;;;;;;;4.53;4.13;;;;;;;13.70;100.00;99827.59;5071887;28;20513;-73
2021/08/07 03:33:21;;;;;;;5.77;3.97;;;;;;;13.75;100.00;99823.81;5075986;28;20442;-73
2021/08/07 03:35:48;;;;;;;5.30;3.77;;;;;;;13.71;100.00;99829.31;5080405;28;20201;-74
2021/08/07 03:38:16;;;;;;;6.80;4.07;;;;;;;13.74;100.00;99818.69;5075998;28;20211;-73
2021/08/07 03:40:43;;;;;;;5.07;4.30;;;;;;;13.74;100.00;99823.91;5077209;28;20289;-74
2021/08/07 03:43:14;;;;;;;5.80;4.10;;;;;;;13.79;100.00;99830.59;5072485;28;20199;-73
2021/08/07 03:45:41;;;;;;;5.13;4.00;;;;;;;13.74;100.00;99835.22;5075232;28;20384;-74
2021/08/07 03:48:09;;;;;;;4.40;3.60;;;;;;;13.71;100.00;99837.16;5074017;28;20294;-73
2021/08/07 03:50:41;;;;;;;5.03;3.67;;;;;;;13.64;100.00;99840.09;5077892;28;20229;-74
2021/08/07 03:53:11;;;;;;;4.17;3.27;;;;;;;13.65;100.00;99840.94;5073089;28;20194;-73
2021/08/07 03:55:39;;;;;;;4.40;3.73;;;;;;;13.63;100.00;99837.53;5079484;28;20207;-74
2021/08/07 03:58:07;;;;;;;4.60;3.53;;;;;;;13.61;100.00;99839.41;5078900;28;20219;-73
2021/08/07 04:00:43;;;;;;;5.33;3.50;;;;;;;13.62;100.00;99835.88;5070029;28;20212;-73
2021/08/07 04:03:18;;;;;;;5.77;4.00;;;;;;;13.69;100.00;99837.25;5074583;28;20209;-74
2021/08/07 04:05:45;;;;;;;4.57;3.80;;;;;;;13.67;100.00;99839.09;5070351;28;20203;-73
2021/08/07 04:08:12;;;;;;;5.03;3.70;;;;;;;13.72;100.00;99833.59;5074227;28;20199;-73
2021/08/07 04:10:45;;;;;;;3.87;3.43;;;;;;;13.69;100.00;99832.00;5071931;28;20230;-74
2021/08/07 04:13:12;;;;;;;4.50;3.83;;;;;;;13.71;100.00;99835.38;5079535;28;20213;-74
2021/08/07 04:15:40;;;;;;;4.37;3.43;;;;;;;13.73;100.00;99840.53;5073267;28;20206;-73
2021/08/07 04:18:08;;;;;;;6.23;4.20;;;;;;;13.78;100.00;99841.16;5082652;28;20211;-74
2021/08/07 04:20:37;;;;;;;6.33;4.10;;;;;;;13.79;100.00;99848.94;5073569;28;20455;-73
2021/08/07 04:23:05;;;;;;;6.63;4.90;;;;;;;13.82;100.00;99845.31;5076603;28;20497;-74
2021/08/07 04:25:35;;;;;;;7.40;5.80;;;;;;;13.85;100.00;99839.91;5072322;28;20204;-74
2021/08/07 04:28:04;;;;;;;7.13;5.53;;;;;;;13.88;100.00;99838.88;5077065;28;20241;-73
2021/08/07 04:30:30;;;;;;;9.47;6.50;;;;;;;13.94;100.00;99842.03;5074161;28;20267;-73
2021/08/07 04:32:59;;;;;;;8.70;7.00;;;;;;;13.89;100.00;99838.81;5082190;28;20202;-74
2021/08/07 04:35:26;;;;;;;11.60;7.03;;;;;;;13.90;100.00;99837.91;5075796;28;20319;-73
2021/08/07 04:37:56;;;;;;;11.10;8.57;;;;;;;14.01;100.00;99848.66;5077041;28;20262;-73
2021/08/07 04:40:35;;;;;;;10.47;6.90;;;;;;;14.09;100.00;99844.78;5073946;28;20203;-73
2021/08/07 04:43:07;;;;;;;13.60;8.53;;;;;;;14.14;100.00;99837.50;5071520;28;20215;-74
2021/08/07 04:45:34;;;;;;;11.53;7.80;;;;;;;14.21;100.00;99833.63;5078697;28;20224;-74
2021/08/07 04:48:07;;;;;;;10.97;7.97;;;;;;;14.25;100.00;99839.56;5072702;28;20205;-74
2021/08/07 04:50:43;;;;;;;8.67;7.50;;;;;;;14.29;100.00;99844.56;5075354;28;20302;-74
2021/08/07 04:53:09;;;;;;;12.23;7.23;;;;;;;14.36;100.00;99840.69;5079087;28;20217;-73
2021/08/07 04:55:39;;;;;;;10.47;7.00;;;;;;;14.37;100.00;99842.38;5082842;28;20204;-73
2021/08/07 04:58:08;;;;;;;9.23;6.60;;;;;;;14.35;100.00;99840.75;5076249;28;20232;-73
2021/08/07 05:00:37;;;;;;;9.23;6.10;;;;;;;14.38;100.00;99843.22;5082916;28;20240;-74
2021/08/07 05:03:05;;;;;;;7.37;6.17;;;;;;;14.46;100.00;99846.28;5076030;28;20213;-73
2021/08/07 05:05:35;;;;;;;9.33;6.23;;;;;;;14.58;100.00;99850.88;5075874;28;20221;-73
2021/08/07 05:08:02;;;;;;;6.87;6.10;;;;;;;14.74;100.00;99850.88;5077089;28;20309;-73
2021/08/07 05:10:31;;;;;;;9.73;5.93;;;;;;;14.82;100.00;99855.69;5081278;28;20241;-74
2021/08/07 05:12:58;;;;;;;8.60;6.20;;;;;;;14.92;100.00;99862.13;5074245;28;20205;-74
2021/08/07 05:15:26;;;;;;;7.27;5.53;;;;;;;15.01;100.00;99860.75;5078590;28;20313;-74
2021/08/07 05:17:54;;;;;;;6.83;5.43;;;;;;;15.11;100.00;99858.47;5077347;28;20228;-73
2021/08/07 05:20:21;;;;;;;8.33;5.13;;;;;;;15.18;100.00;99862.44;5075755;28;20288;-74
2021/08/07 05:22:47;;;;;;;7.20;5.00;;;;;;;15.24;100.00;99866.47;5080492;28;20836;-74
2021/08/07 05:25:15;;;;;;;5.40;4.30;;;;;;;15.34;100.00;99860.59;5077854;28;20226;-73
2021/08/07 05:27:41;;;;;;;4.67;3.97;;;;;;;15.36;100.00;99873.66;5075738;28;20662;-74
2021/08/07 05:30:09;;;;;;;4.43;3.80;;;;;;;15.41;100.00;99863.72;5078389;28;20233;-74
2021/08/07 05:32:40;;;;;;;4.30;3.30;;;;;;;15.41;100.00;99868.97;5082813;28;20701;-74
2021/08/07 05:35:08;;;;;;;4.47;3.47;;;;;;;15.39;100.00;99868.22;5071282;28;20654;-73
2021/08/07 05:37:38;;;;;;;3.37;2.73;;;;;;;15.48;100.00;99872.09;5079383;28;20199;-74
2021/08/07 05:40:06;;;;;;;3.53;2.53;;;;;;;15.53;100.00;99873.50;5074943;28;20206;-74
2021/08/07 05:42:32;;;;;;;3.53;2.77;;;;;;;15.62;100.00;99872.13;5081673;28;20203;-74
2021/08/07 05:44:59;;;;;;;3.50;2.40;;;;;;;15.74;100.00;99872.31;5075534;28;20230;-73
2021/08/07 05:47:25;;;;;;;3.07;2.57;;;;;;;15.83;100.00;99875.31;5076961;28;20205;-74
2021/08/07 05:49:53;;;;;;;3.60;2.50;;;;;;;15.93;100.00;99878.19;5074731;28;20777;-73
2021/08/07 05:52:20;;;;;;;3.47;2.40;;;;;;;15.99;100.00;99880.47;5083406;28;20201;-74
2021/08/07 05:54:46;;;;;;;2.73;2.40;;;;;;;16.03;100.00;99887.22;5075410;28;20229;-74
2021/08/07 05:57:14;;;;;;;2.70;2.40;;;;;;;16.18;100.00;99881.97;5085393;28;20210;-74
2021/08/07 05:59:41;;;;;;;3.27;2.30;;;;;;;16.21;100.00;99887.88;5071552;28;20216;-74
2021/08/07 06:02:07;;;;;;;1.77;1.67;;;;;;;16.31;100.00;99893.44;5082949;28;20251;-74
2021/08/07 06:04:35;;;;;;;2.43;1.70;;;;;;;16.34;100.00;99901.16;5076229;28;20230;-74
2021/08/07 06:07:05;;;;;;;2.77;1.73;;;;;;;16.41;100.00;99901.59;5080372;28;20568;-74
2021/08/07 06:09:33;;;;;;;3.00;1.77;;;;;;;16.50;100.00;99893.16;5072421;28;20210;-74
2021/08/07 06:12:00;;;;;;;3.40;2.10;;;;;;;16.52;100.00;99893.91;5082807;28;20229;-73
2021/08/07 06:14:27;;;;;;;2.13;1.93;;;;;;;16.58;100.00;99892.66;5077830;28;20235;-74
2021/08/07 06:16:54;;;;;;;1.50;1.40;;;;;;;16.64;100.00;99893.13;5081064;28;20245;-74
2021/08/07 06:19:21;;;;;;;2.87;1.83;;;;;;;16.71;100.00;99893.59;5078263;28;20208;-74
2021/08/07 06:21:50;;;;;;;2.17;1.93;;;;;;;16.81;100.00;99894.66;5074743;28;20214;-73
2021/08/07 06:24:18;;;;;;;4.00;1.87;;;;;;;16.96;100.00;99894.69;5085151;28;20225;-73
2021/08/07 06:26:44;;;;;;;2.23;1.63;;;;;;;17.13;100.00;99899.72;5073394;28;20205;-74
2021/08/07 06:29:12;;;;;;;2.67;1.77;;;;;;;17.30;100.00;99906.50;5085705;28;20198;-73
2021/08/07 06:31:38;;;;;;;3.03;1.60;;;;;;;17.49;100.00;99903.50;5080322;28;20230;-74
2021/08/07 06:34:07;;;;;;;2.53;1.63;;;;;;;17.68;99.79;99907.56;5084497;28;20255;-73
2021/08/07 06:36:35;;;;;;;3.10;1.63;;;;;;;17.82;97.58;99910.09;5076422;28;20209;-73
2021/08/07 06:39:03;;;;;;;3.73;1.70;;;;;;;17.87;95.99;99909.81;5079908;28;20202;-73
2021/08/07 06:41:32;;;;;;;2.80;1.60;;;;;;;18.00;96.61;99913.31;5073729;28;20252;-73
2021/08/07 06:44:09;;;;;;;2.43;1.50;;;;;;;18.07;94.07;99916.38;5081083;28;20229;-73
2021/08/07 06:46:38;;;;;;;1.73;1.30;;;;;;;18.10;93.70;99910.88;5076617;28;20212;-73
2021/08/07 06:49:07;;;;;;;1.27;1.17;;;;;;;18.23;94.21;99903.81;5092774;28;20290;-73
2021/08/07 06:51:34;;;;;;;2.27;1.47;;;;;;;18.33;93.04;99902.22;5075131;28;20290;-73
2021/08/07 06:54:01;;;;;;;2.50;1.50;;;;;;;18.40;91.98;99914.97;5077763;28;20328;-73
2021/08/07 06:56:31;;;;;;;1.33;1.20;;;;;;;18.39;92.42;99908.84;5073548;28;20202;-73
2021/08/07 06:58:59;;;;;;;2.27;1.60;;;;;;;18.51;93.44;99915.06;5079397;28;20209;-73
2021/08/07 07:01:26;;;;;;;2.40;1.10;;;;;;;18.48;90.75;99916.13;5079181;28;20212;-73
2021/08/07 07:03:52;;;;;;;1.93;1.20;;;;;;;18.49;89.91;99925.72;5078099;28;20226;-73
2021/08/07 07:06:20;;;;;;;3.47;1.37;;;;;;;18.50;88.28;99935.34;5079549;28;20205;-73
2021/08/07 07:08:47;;;;;;;2.43;1.23;;;;;;;18.59;89.58;99928.59;5076648;28;20206;-73
2021/08/07 07:11:16;;;;;;;1.40;1.30;;;;;;;18.58;88.25;99923.41;5083293;28;20225;-73
2021/08/07 07:13:45;;;;;;;1.77;1.10;;;;;;;18.58;88.79;99926.03;5077687;28;20815;-73
2021/08/07 07:16:12;;;;;;;1.33;1.10;;;;;;;18.59;88.40;99928.59;5082687;28;20285;-73
2021/08/07 07:18:38;;;;;;;1.40;1.30;;;;;;;18.64;87.60;99934.34;5072219;28;20207;-73
2021/08/07 07:21:05;;;;;;;1.30;1.07;;;;;;;18.75;89.33;99923.06;5087425;28;20202;-73
2021/08/07 07:23:31;;;;;;;2.17;1.23;;;;;;;18.85;86.17;99931.19;5079977;28;20568;-73
2021/08/07 07:25:58;;;;;;;1.17;1.00;;;;;;;18.89;84.80;99936.13;5085138;28;20262;-73
2021/08/07 07:28:24;;;;;;;1.30;1.20;;;;;;;19.02;85.92;99933.44;5079607;28;20218;-73
2021/08/07 07:30:52;;;;;;;2.67;1.10;;;;;;;19.11;85.84;99934.59;5081121;28;20301;-73
2021/08/07 07:33:20;;;;;;;2.23;1.10;;;;;;;19.27;86.38;99942.22;5075449;28;20305;-73
2021/08/07 07:35:46;;;;;;;2.00;1.30;;;;;;;19.40;85.56;99942.16;5076628;28;20210;-73
2021/08/07 07:38:13;;;;;;;3.13;1.20;;;;;;;19.42;83.23;99937.63;5075276;28;20213;-73
2021/08/07 07:40:41;;;;;;;1.10;1.00;;;;;;;19.45;81.82;99945.31;5074856;28;20203;-73
2021/08/07 07:43:08;;;;;;;1.37;1.03;;;;;;;19.49;82.16;99941.50;5078072;28;20233;-73
2021/08/07 07:45:35;;;;;;;2.73;1.10;;;;;;;19.55;81.39;99938.38;5083937;28;20210;-73
2021/08/07 07:48:06;;;;;;;1.10;1.00;;;;;;;19.64;79.28;99937.69;5076638;28;20206;-73
2021/08/07 07:50:32;;;;;;;1.67;1.17;;;;;;;19.73;79.31;99944.09;5077477;28;20206;-73
2021/08/07 07:52:59;;;;;;;1.20;1.10;;;;;;;19.74;78.64;99948.47;5072188;28;20206;-72
2021/08/07 07:55:28;;;;;;;5.00;1.10;;;;;;;19.81;77.71;99940.91;5078194;28;20260;-73
2021/08/07 07:57:57;;;;;;;1.10;1.00;;;;;;;19.86;78.90;99938.78;5079899;28;20200;-73
2021/08/07 08:00:24;;;;;;;1.77;1.17;;;;;;;20.00;79.24;99943.00;5077447;28;20202;-73
2021/08/07 08:02:54;;;;;;;1.17;1.03;;;;;;;20.06;77.11;99942.53;5081484;28;20305;-73
2021/08/07 08:05:30;;;;;;;1.40;1.10;;;;;;;20.12;76.00;99941.22;5079947;28;20260;-73
2021/08/07 08:07:58;;;;;;;1.73;1.00;;;;;;;20.21;75.70;99932.56;5080363;28;20740;-73
2021/08/07 08:10:24;;;;;;;1.10;1.00;;;;;;;20.35;74.89;99942.06;5078565;28;20212;-73
2021/08/07 08:12:51;;;;;;;1.50;1.13;;;;;;;20.51;75.11;99941.72;5082932;28;20648;-72
2021/08/07 08:15:19;;;;;;;0.97;0.90;;;;;;;20.51;72.93;99937.28;5077671;28;20570;-72
2021/08/07 08:17:45;;;;;;;1.47;0.97;;;;;;;20.60;74.60;99925.97;5086808;28;20212;-73
2021/08/07 08:20:13;;;;;;;1.60;1.30;;;;;;;20.61;73.50;99926.78;5077565;28;20635;-72
2021/08/07 08:22:43;;;;;;;1.30;1.10;;;;;;;20.77;74.47;99924.66;5082412;28;21653;-72
2021/08/07 08:25:11;;;;;;;1.10;1.00;;;;;;;20.83;73.15;99919.84;5082462;28;20246;-72
2021/08/07 08:27:39;;;;;;;1.30;0.90;;;;;;;20.81;73.21;99922.59;5083233;28;20216;-72
2021/08/07 08:30:07;;;;;;;1.10;0.83;;;;;;;20.88;72.72;99921.16;5095325;28;20199;-72
2021/08/07 08:32:34;;;;;;;1.53;0.93;;;;;;;20.91;71.73;99923.53;5081776;28;20225;-72
2021/08/07 08:35:02;;;;;;;1.17;1.00;;;;;;;21.10;73.26;99922.88;5081582;28;20287;-72
2021/08/07 08:37:30;;;;;;;1.00;1.00;;;;;;;21.16;70.62;99916.25;5079599;28;20680;-72
2021/08/07 08:39:58;;;;;;;1.93;0.87;;;;;;;21.31;72.81;99919.44;5079425;28;20206;-72
2021/08/07 08:42:26;;;;;;;3.03;1.00;;;;;;;21.27;70.21;99928.63;5080976;28;20206;-73
2021/08/07 08:44:53;;;;;;;1.10;1.00;;;;;;;21.43;72.71;99914.97;5085678;28;20226;-72
2021/08/07 08:47:21;;;;;;;0.80;0.80;;;;;;;21.55;71.15;99925.41;5083700;28;20210;-72
2021/08/07 08:49:51;;;;;;;1.47;1.07;;;;;;;21.68;70.75;99919.06;5084593;28;20203;-72
2021/08/07 08:52:22;;;;;;;0.90;0.90;;;;;;;21.70;68.34;99930.41;5083489;28;20734;-72
2021/08/07 08:54:49;;;;;;;1.87;1.00;;;;;;;21.78;68.19;99920.00;5105531;28;20565;-72
2021/08/07 08:57:18;;;;;;;1.63;1.00;;;;;;;21.91;69.64;99928.56;5082699;28;20224;-74
2021/08/07 08:59:44;;;;;;;1.10;1.00;;;;;;;22.11;69.69;99932.22;5089583;28;20206;-74
2021/08/07 09:02:11;;;;;;;1.03;0.93;;;;;;;22.22;69.27;99930.44;5087342;28;20269;-74
2021/08/07 09:04:38;;;;;;;1.67;1.13;;;;;;;22.37;68.76;99933.63;5089841;28;20835;-73
2021/08/07 09:07:05;;;;;;;2.20;1.20;;;;;;;22.30;65.99;99936.81;5081302;28;20202;-74
2021/08/07 09:09:37;;;;;;;1.60;1.10;;;;;;;22.37;66.93;99937.09;5084397;28;20202;-74
2021/08/07 09:12:06;;;;;;;6.40;2.10;;;;;;;22.39;66.59;99934.31;5077798;28;20252;-74
2021/08/07 09:14:37;;;;;;;3.37;1.37;;;;;;;22.38;66.67;99941.44;5079748;28;20581;-74
2021/08/07 09:17:13;;;;;;;3.17;1.90;;;;;;;22.26;66.02;99942.47;5082332;28;20276;-74
2021/08/07 09:19:53;;;;;;;2.87;1.43;;;;;;;22.27;67.24;99939.72;5084627;28;20301;-74
2021/08/07 09:22:22;;;;;;;3.70;1.17;;;;;;;22.12;68.56;99928.56;5072817;28;20194;-73
2021/08/07 09:24:58;;;;;;;3.70;1.10;;;;;;;22.11;68.66;99924.25;5069411;28;20781;-73
2021/08/07 09:27:30;;;;;;;1.03;0.90;;;;;;;21.81;66.10;99942.75;5077353;28;20202;-72
2021/08/07 09:29:59;;;;;;;2.17;1.10;;;;;;;21.83;67.59;99935.50;5071980;28;20205;-72
2021/08/07 09:32:26;;;;;;;2.10;1.27;;;;;;;21.88;67.10;99936.81;5079853;28;20249;-72
2021/08/07 09:35:04;;;;;;;4.07;1.20;;;;;;;21.85;68.05;99936.25;5078161;28;20253;-73
2021/08/07 09:37:31;;;;;;;2.50;1.20;;;;;;;22.00;67.94;99926.97;5087098;28;20547;-73
2021/08/07 09:40:00;;;;;;;1.30;1.00;;;;;;;22.07;68.10;99936.06;5078179;28;20217;-73
2021/08/07 09:42:31;;;;;;;2.20;1.27;;;;;;;22.13;68.91;99938.22;5084273;28;20194;-72
2021/08/07 09:45:05;;;;;;;1.07;0.80;;;;;;;22.21;67.49;99928.75;5073970;28;20232;-72
2021/08/07 09:47:35;;;;;;;1.20;0.90;;;;;;;22.27;67.33;99920.31;5084855;28;20274;-72
2021/08/07 09:50:02;;;;;;;2.20;0.90;;;;;;;22.54;66.38;99929.50;5078575;28;20205;-73
2021/08/07 09:52:38;;;;;;;1.23;1.00;;;;;;;22.53;64.58;99925.16;5083556;28;20229;-73
2021/08/07 09:55:06;;;;;;;1.13;0.90;;;;;;;22.46;63.92;99922.19;5083063;28;20477;-72
2021/08/07 09:57:32;;;;;;;0.97;0.87;;;;;;;22.59;61.90;99935.25;5081514;28;20567;-72
2021/08/07 10:00:05;;;;;;;2.23;1.03;;;;;;;22.46;62.51;99923.03;5080147;28;20202;-72
2021/08/07 10:02:42;;;;;;;1.10;1.00;;;;;;;22.54;63.96;99922.38;5081940;28;20281;-72
2021/08/07 10:05:11;;;;;;;0.90;0.90;;;;;;;22.58;61.84;99921.09;5084072;28;20226;-72
2021/08/07 10:08:03;;;;;;;0.87;0.87;;;;;;;22.95;60.02;99923.16;5081346;28;20213;-72
2021/08/07 10:10:40;;;;;;;0.93;0.80;;;;;;;22.90;60.49;99924.56;5082840;28;20206;-72
2021/08/07 10:13:10;;;;;;;1.02;0.85;;;;;;;22.95;60.60;99930.31;5075434;28;20253;-72
2021/08/07 10:15:48;;;;;;;1.75;1.08;;;;;;;22.97;59.83;99923.91;5086816;28;20220;-72
2021/08/07 10:18:14;;;;;;;1.15;0.90;;;;;;;23.06;59.80;99919.59;5087032;28;20425;-72
2021/08/07 10:20:44;;;;;;;0.80;0.80;;;;;;;23.39;60.79;99912.19;5084038;28;20202;-72
2021/08/07 10:23:11;;;;;;;0.75;0.70;;;;;;;23.31;58.38;99917.38;5075808;28;20198;-72
2021/08/07 10:25:44;;;;;;;0.90;0.80;;;;;;;23.40;60.31;99909.41;5084661;28;20290;-72
2021/08/07 10:28:12;;;;;;;1.45;0.90;;;;;;;23.60;59.68;99902.22;5079217;28;20207;-72
2021/08/07 10:30:39;;;;;;;0.75;0.70;;;;;;;23.73;58.31;99904.63;5082240;28;20211;-72
2021/08/07 10:33:08;;;;;;;1.42;0.80;;;;;;;23.69;55.62;99911.19;5084142;28;20253;-72
2021/08/07 10:35:35;;;;;;;0.93;0.70;;;;;;;23.72;56.46;99907.41;5080840;28;20211;-72
2021/08/07 10:38:01;;;;;;;0.82;0.80;;;;;;;23.79;56.33;99914.69;5079655;28;20208;-72
2021/08/07 10:40:29;;;;;;;2.33;0.80;;;;;;;23.57;54.38;99914.97;5076615;28;20233;-72
2021/08/07 10:42:56;;;;;;;0.80;0.80;;;;;;;23.81;54.65;99911.91;5082117;28;20201;-72
2021/08/07 10:45:23;;;;;;;0.70;0.60;;;;;;;23.85;54.53;99915.13;5076597;28;20266;-72
2021/08/07 10:51:51;;;;;;;0.70;0.70;;;;;;;24.44;53.64;99905.97;5079239;28;20278;-72
2021/08/07 10:54:36;;;;;;;0.80;0.75;;;;;;;24.56;52.49;99910.16;5080089;28;20222;-72
2021/08/07 10:57:04;;;;;;;0.75;0.65;;;;;;;24.49;52.88;99905.53;5079934;28;20238;-73
2021/08/07 11:00:11;;;;;;;1.42;0.55;;;;;;;24.29;52.93;99910.94;5077872;28;20206;-72
2021/08/07 11:03:22;;;;;;;0.93;0.70;;;;;;;24.08;53.61;99903.16;5081912;28;20283;-72
2021/08/07 11:05:50;;;;;;;1.65;0.90;;;;;;;23.90;53.48;99902.22;5081540;28;20201;-72
2021/08/07 11:08:18;;;;;;;0.60;0.60;;;;;;;23.97;54.85;99898.00;5077642;28;20248;-72
2021/08/07 11:10:45;;;;;;;0.80;0.68;;;;;;;24.13;53.33;99902.72;5078465;28;20218;-72
2021/08/07 11:13:22;;;;;;;1.90;0.80;;;;;;;24.17;53.22;99896.97;5076806;28;20232;-72
2021/08/07 11:16:09;;;;;;;0.85;0.70;;;;;;;24.18;54.44;99887.97;5076637;28;20637;-72
2021/08/07 11:18:35;;;;;;;0.73;0.70;;;;;;;24.25;52.68;99896.22;5076187;28;20273;-72
2021/08/07 11:21:01;;;;;;;2.17;0.80;;;;;;;24.26;51.42;99881.09;5084206;28;20193;-72
2021/08/07 11:23:37;;;;;;;0.73;0.73;;;;;;;24.42;52.16;99875.16;5076466;28;20209;-72
2021/08/07 11:26:07;;;;;;;1.30;0.82;;;;;;;24.60;54.35;99878.72;5086566;28;20206;-72
2021/08/07 11:28:55;;;;;;;0.68;0.68;;;;;;;24.58;51.46;99887.84;5079013;28;20690;-72
2021/08/07 11:31:23;;;;;;;1.00;0.77;;;;;;;24.35;49.62;99881.03;5080785;28;20256;-72
2021/08/07 11:34:35;;;;;;;1.25;0.77;;;;;;;24.02;51.34;99874.44;5074011;28;20680;-72
2021/08/07 11:37:29;;;;;;;0.60;0.52;;;;;;;24.32;51.73;99880.50;5075933;28;20210;-72
2021/08/07 11:40:15;;;;;;;0.63;0.60;;;;;;;24.61;51.86;99883.06;5081420;28;20661;-72
2021/08/07 11:42:44;;;;;;;0.70;0.70;;;;;;;24.79;50.47;99882.25;5073354;28;20206;-73
2021/08/07 11:45:16;;;;;;;1.85;0.88;;;;;;;24.99;51.65;99874.97;5084352;28;21249;-72
2021/08/07 11:47:44;;;;;;;0.70;0.70;;;;;;;25.07;50.41;99867.88;5074428;28;20206;-72